createdAt,value
2018-03-06T00:00:48.796Z,12.50
2018-03-06T00:02:26.532Z,12.25
2018-03-06T00:04:05.135Z,12.00
2018-03-06T00:05:42.687Z,14.25
2018-03-06T00:07:20.579Z,13.25
2018-03-06T00:08:58.831Z,15.25
2018-03-06T00:10:36.842Z,14.75
2018-03-06T00:12:14.898Z,9.25
2018-03-06T00:13:57.260Z,12.50
2018-03-06T00:15:35.709Z,13.00
2018-03-06T00:17:14.643Z,12.00
2018-03-06T00:18:53.276Z,13.75
2018-03-06T00:20:31.439Z,19.00
2018-03-06T00:22:10.051Z,13.50
2018-03-06T00:23:47.899Z,14.75
2018-03-06T00:25:25.765Z,13.00
2018-03-06T00:27:03.508Z,15.25
2018-03-06T00:28:42.451Z,15.50
2018-03-06T00:30:20.981Z,13.25
2018-03-06T00:32:00.909Z,16.50
2018-03-06T00:33:38.582Z,15.50
2018-03-06T00:35:16.458Z,15.75
2018-03-06T00:36:54.297Z,15.25
2018-03-06T00:38:32.270Z,12.75
2018-03-06T00:40:11.417Z,16.00
2018-03-06T00:41:49.511Z,17.25
2018-03-06T00:43:27.473Z,13.75
2018-03-06T00:45:05.193Z,12.75
2018-03-06T00:46:43.594Z,36.75
2018-03-06T00:48:22.076Z,16.00
2018-03-06T00:50:00.130Z,16.75
2018-03-06T00:51:37.752Z,17.50
2018-03-06T00:53:16.377Z,13.75
2018-03-06T00:54:55.237Z,14.00
2018-03-06T00:56:33.336Z,17.00
2018-03-06T00:58:11.551Z,15.00
2018-03-06T00:59:50.373Z,16.75
2018-03-06T01:01:28.748Z,16.25
2018-03-06T01:03:07.080Z,14.25
2018-03-06T01:04:45.196Z,14.00
2018-03-06T01:06:23.051Z,16.50
2018-03-06T01:08:02.071Z,13.50
2018-03-06T01:09:40.733Z,16.00
2018-03-06T01:11:18.514Z,16.25
2018-03-06T01:12:56.695Z,16.50
2018-03-06T01:14:35.019Z,16.75
2018-03-06T01:16:13.543Z,13.75
2018-03-06T01:17:52.224Z,16.50
2018-03-06T01:19:30.346Z,16.50
2018-03-06T01:21:09.116Z,16.25
2018-03-06T01:22:47.763Z,16.50
2018-03-06T01:24:26.086Z,17.25
2018-03-06T01:26:03.796Z,17.00
2018-03-06T01:27:41.981Z,15.25
2018-03-06T01:29:19.430Z,15.50
2018-03-06T01:30:57.313Z,16.00
2018-03-06T01:32:36.124Z,16.50
2018-03-06T01:34:14.788Z,17.00
2018-03-06T01:35:53.245Z,16.50
2018-03-06T01:37:30.944Z,15.75
2018-03-06T01:39:09.819Z,14.00
2018-03-06T01:40:48.624Z,14.75
2018-03-06T01:42:26.069Z,16.75
2018-03-06T01:44:04.245Z,14.50
2018-03-06T01:45:42.789Z,15.00
2018-03-06T01:47:21.079Z,14.75
2018-03-06T01:48:59.817Z,15.00
2018-03-06T01:50:37.527Z,15.75
2018-03-06T01:52:16.094Z,16.75
2018-03-06T01:53:54.705Z,14.25
2018-03-06T01:55:33.159Z,16.75
2018-03-06T01:57:10.487Z,17.25
2018-03-06T01:58:48.663Z,15.00
2018-03-06T02:00:29.552Z,15.00
2018-03-06T02:02:07.034Z,13.50
2018-03-06T02:03:45.359Z,15.50
2018-03-06T02:05:23.509Z,12.50
2018-03-06T02:07:00.844Z,16.50
2018-03-06T02:08:38.140Z,15.25
2018-03-06T02:10:15.385Z,12.00
2018-03-06T02:11:52.932Z,17.50
2018-03-06T02:13:30.989Z,17.50
2018-03-06T02:15:07.833Z,12.00
2018-03-06T02:16:45.348Z,15.50
2018-03-06T02:18:24.212Z,15.00
2018-03-06T02:20:02.156Z,16.75
2018-03-06T02:21:40.542Z,15.25
2018-03-06T02:23:18.507Z,19.00
2018-03-06T02:24:57.249Z,19.00
2018-03-06T02:26:34.602Z,20.50
2018-03-06T02:28:12.887Z,16.50
2018-03-06T02:29:51.134Z,17.50
2018-03-06T02:31:30.017Z,16.50
2018-03-06T02:33:07.835Z,16.00
2018-03-06T02:34:45.529Z,16.50
2018-03-06T02:36:23.793Z,18.00
2018-03-06T02:38:01.292Z,16.75
2018-03-06T02:39:38.082Z,18.75
2018-03-06T02:41:14.938Z,20.00
2018-03-06T02:42:52.771Z,16.00
2018-03-06T02:44:30.697Z,19.25
2018-03-06T02:46:13.548Z,15.75
2018-03-06T02:47:51.191Z,18.00
2018-03-06T02:49:29.109Z,18.75
2018-03-06T02:51:06.450Z,15.50
2018-03-06T02:52:43.333Z,15.25
2018-03-06T02:54:20.305Z,18.00
2018-03-06T02:55:59.283Z,15.75
2018-03-06T02:57:36.893Z,17.50
2018-03-06T02:59:13.859Z,14.50
2018-03-06T03:00:51.207Z,18.25
2018-03-06T03:02:29.908Z,14.50
2018-03-06T03:04:08.072Z,18.00
2018-03-06T03:05:44.914Z,15.00
2018-03-06T03:07:22.533Z,15.25
2018-03-06T03:08:59.434Z,17.00
2018-03-06T03:10:36.855Z,18.50
2018-03-06T03:12:14.180Z,17.00
2018-03-06T03:13:52.701Z,15.50
2018-03-06T03:15:29.653Z,14.25
2018-03-06T03:17:08.054Z,17.00
2018-03-06T03:18:45.192Z,16.25
2018-03-06T03:20:22.780Z,16.75
2018-03-06T03:21:59.458Z,20.75
2018-03-06T03:23:36.819Z,14.00
2018-03-06T03:25:13.437Z,11.00
2018-03-06T03:26:50.386Z,19.75
2018-03-06T03:28:27.204Z,15.50
2018-03-06T03:30:05.287Z,13.25
2018-03-06T03:31:42.075Z,16.50
2018-03-06T03:33:22.803Z,14.75
2018-03-06T03:34:59.672Z,16.00
2018-03-06T03:36:36.512Z,14.75
2018-03-06T03:38:13.938Z,18.00
2018-03-06T03:39:50.573Z,16.50
2018-03-06T03:41:28.450Z,11.00
2018-03-06T03:43:05.635Z,14.75
2018-03-06T03:44:43.041Z,19.25
2018-03-06T03:46:20.425Z,20.75
2018-03-06T03:47:57.433Z,17.25
2018-03-06T03:49:34.575Z,20.00
2018-03-06T03:51:13.778Z,18.25
2018-03-06T03:52:50.840Z,18.25
2018-03-06T03:54:27.446Z,18.00
2018-03-06T03:56:06.036Z,15.25
2018-03-06T03:57:42.683Z,16.00
2018-03-06T03:59:19.798Z,16.00
2018-03-06T04:00:56.736Z,18.50
2018-03-06T04:02:35.467Z,15.25
2018-03-06T04:04:12.293Z,19.75
2018-03-06T04:05:49.022Z,13.25
2018-03-06T04:07:26.697Z,12.75
2018-03-06T04:09:05.214Z,16.25
2018-03-06T04:10:41.967Z,13.00
2018-03-06T04:12:18.604Z,7.50
2018-03-06T04:13:55.904Z,14.50
2018-03-06T04:15:33.921Z,19.00
2018-03-06T04:17:12.217Z,7.75
2018-03-06T04:18:49.345Z,10.50
2018-03-06T04:20:26.062Z,10.50
2018-03-06T04:22:02.686Z,10.75
2018-03-06T04:23:40.105Z,13.50
2018-03-06T04:25:16.630Z,15.50
2018-03-06T04:26:54.156Z,16.00
2018-03-06T04:28:31.005Z,11.50
2018-03-06T04:30:08.825Z,14.00
2018-03-06T04:31:46.177Z,15.50
2018-03-06T04:33:22.997Z,13.25
2018-03-06T04:35:00.461Z,12.00
2018-03-06T04:36:37.082Z,9.00
2018-03-06T04:38:14.283Z,10.00
2018-03-06T04:39:51.061Z,7.75
2018-03-06T04:41:28.154Z,13.50
2018-03-06T04:43:04.772Z,7.25
2018-03-06T04:44:41.384Z,9.25
2018-03-06T04:46:18.477Z,13.50
2018-03-06T04:47:56.627Z,16.00
2018-03-06T04:49:33.505Z,16.00
2018-03-06T04:51:10.509Z,16.25
2018-03-06T04:52:48.046Z,19.75
2018-03-06T04:54:25.132Z,11.50
2018-03-06T04:56:01.688Z,16.75
2018-03-06T04:57:38.569Z,15.75
2018-03-06T04:59:15.130Z,8.50
2018-03-06T05:00:53.320Z,8.00
2018-03-06T05:02:29.808Z,9.50
2018-03-06T05:04:06.374Z,11.50
2018-03-06T05:05:42.988Z,10.50
2018-03-06T05:07:19.525Z,7.50
2018-03-06T05:08:57.150Z,10.75
2018-03-06T05:10:33.800Z,11.50
2018-03-06T05:12:10.506Z,11.00
2018-03-06T05:13:48.456Z,6.00
2018-03-06T05:15:28.619Z,15.00
2018-03-06T05:17:06.479Z,12.00
2018-03-06T05:18:43.854Z,14.00
2018-03-06T05:20:21.500Z,12.75
2018-03-06T05:21:58.344Z,10.00
2018-03-06T05:23:35.745Z,19.75
2018-03-06T05:25:12.985Z,13.75
2018-03-06T05:26:50.791Z,11.25
2018-03-06T05:28:28.283Z,16.00
2018-03-06T05:30:06.782Z,15.25
2018-03-06T05:31:44.060Z,13.00
2018-03-06T05:33:21.596Z,18.75
2018-03-06T05:34:58.756Z,17.00
2018-03-06T05:36:36.070Z,16.75
2018-03-06T05:38:14.199Z,8.50
2018-03-06T05:39:53.104Z,16.25
2018-03-06T05:41:30.498Z,18.50
2018-03-06T05:43:07.627Z,11.50
2018-03-06T05:44:45.956Z,14.00
2018-03-06T05:46:24.725Z,22.00
2018-03-06T05:48:03.808Z,17.00
2018-03-06T05:49:41.107Z,22.00
2018-03-06T05:51:20.550Z,23.75
2018-03-06T05:52:58.125Z,19.25
2018-03-06T05:54:35.602Z,27.75
2018-03-06T05:57:50.603Z,21.25
2018-03-06T05:59:27.839Z,17.50
2018-03-06T06:01:05.894Z,14.50
2018-03-06T06:02:43.680Z,16.75
2018-03-06T06:04:21.918Z,21.25
2018-03-06T06:05:59.169Z,16.25
2018-03-06T06:07:37.849Z,23.00
2018-03-06T06:09:17.095Z,22.75
2018-03-06T06:10:54.733Z,21.25
2018-03-06T06:12:32.581Z,25.75
2018-03-06T06:14:10.399Z,26.50
2018-03-06T06:15:50.348Z,25.00
2018-03-06T06:17:28.144Z,19.25
2018-03-06T06:19:05.803Z,28.00
2018-03-06T06:20:43.802Z,21.25
2018-03-06T06:22:22.066Z,13.75
2018-03-06T06:24:00.357Z,21.00
2018-03-06T06:25:38.189Z,11.75
2018-03-06T06:27:16.433Z,11.00
2018-03-06T06:28:53.989Z,19.50
2018-03-06T06:30:32.850Z,17.75
2018-03-06T06:32:10.741Z,17.75
2018-03-06T06:33:48.730Z,19.50
2018-03-06T06:35:26.534Z,22.75
2018-03-06T06:37:04.178Z,19.25
2018-03-06T06:38:42.169Z,21.75
2018-03-06T06:40:20.327Z,24.25
2018-03-06T06:41:58.913Z,18.75
2018-03-06T06:43:36.971Z,20.25
2018-03-06T06:45:16.582Z,24.00
2018-03-06T06:46:55.071Z,16.25
2018-03-06T06:48:32.552Z,13.25
2018-03-06T06:50:10.479Z,28.75
2018-03-06T06:51:48.312Z,29.25
2018-03-06T06:53:26.008Z,16.00
2018-03-06T06:55:03.525Z,21.00
2018-03-06T06:56:43.797Z,19.00
2018-03-06T06:58:21.530Z,21.25
2018-03-06T06:59:59.494Z,17.50
2018-03-06T07:01:37.625Z,16.50
2018-03-06T07:03:16.404Z,21.00
2018-03-06T07:04:54.723Z,16.00
2018-03-06T07:06:32.596Z,10.25
2018-03-06T07:08:10.509Z,8.00
2018-03-06T07:09:48.882Z,17.50
2018-03-06T07:11:27.504Z,21.50
2018-03-06T07:13:06.411Z,10.75
2018-03-06T07:14:43.901Z,15.75
2018-03-06T07:16:22.953Z,12.50
2018-03-06T07:18:00.857Z,15.50
2018-03-06T07:19:39.570Z,22.75
2018-03-06T07:21:17.506Z,14.75
2018-03-06T07:22:55.588Z,24.25
2018-03-06T07:24:33.250Z,25.25
2018-03-06T07:26:10.816Z,14.75
2018-03-06T07:27:48.469Z,11.25
2018-03-06T07:29:26.350Z,24.00
2018-03-06T07:31:04.627Z,23.50
2018-03-06T07:32:43.167Z,21.00
2018-03-06T07:34:21.391Z,14.00
2018-03-06T07:36:00.502Z,22.00
2018-03-06T07:37:39.637Z,21.00
2018-03-06T07:39:17.597Z,19.25
2018-03-06T07:40:55.433Z,18.75
2018-03-06T07:42:33.047Z,20.50
2018-03-06T07:44:10.773Z,23.50
2018-03-06T07:45:49.673Z,26.25
2018-03-06T07:47:27.361Z,17.50
2018-03-06T07:49:05.791Z,22.75
2018-03-06T07:50:43.460Z,16.00
2018-03-06T07:52:21.149Z,13.75
2018-03-06T07:53:58.815Z,23.25
2018-03-06T07:55:37.774Z,17.50
2018-03-06T07:57:16.528Z,14.50
2018-03-06T07:58:54.228Z,21.00
2018-03-06T08:00:31.821Z,27.75
2018-03-06T08:02:10.333Z,17.25
2018-03-06T08:03:48.197Z,17.75
2018-03-06T08:05:26.096Z,28.25
2018-03-06T08:07:03.678Z,19.75
2018-03-06T08:08:42.697Z,12.75
2018-03-06T08:10:21.159Z,24.50
2018-03-06T08:11:58.871Z,26.75
2018-03-06T08:13:36.479Z,26.25
2018-03-06T08:15:15.909Z,21.25
2018-03-06T08:16:54.119Z,24.75
2018-03-06T08:18:32.025Z,25.75
2018-03-06T08:21:42.917Z,26.75
2018-03-06T08:23:20.675Z,28.25
2018-03-06T08:24:59.262Z,14.75
2018-03-06T08:26:38.562Z,17.50
2018-03-06T08:28:17.447Z,19.00
2018-03-06T08:29:55.047Z,33.00
2018-03-06T08:31:32.956Z,17.50
2018-03-06T08:33:11.369Z,25.50
2018-03-06T08:34:49.366Z,31.00
2018-03-06T08:36:27.059Z,23.75
2018-03-06T08:38:04.549Z,26.75
2018-03-06T08:39:42.140Z,30.75
2018-03-06T08:41:20.058Z,24.00
2018-03-06T08:42:57.473Z,17.50
2018-03-06T08:44:35.844Z,10.50
2018-03-06T08:46:13.556Z,23.50
2018-03-06T08:47:51.514Z,20.25
2018-03-06T08:49:29.030Z,26.75
2018-03-06T08:51:06.604Z,29.75
2018-03-06T08:52:44.047Z,34.50
2018-03-06T08:54:22.988Z,33.00
2018-03-06T08:56:00.260Z,35.50
2018-03-06T08:57:38.805Z,33.00
2018-03-06T08:59:16.181Z,29.25
2018-03-06T09:00:54.634Z,30.75
2018-03-06T09:02:33.248Z,31.75
2018-03-06T09:04:10.867Z,33.50
2018-03-06T09:05:48.570Z,31.50
2018-03-06T09:07:27.459Z,33.25
2018-03-06T09:09:05.052Z,32.75
2018-03-06T09:10:43.262Z,30.25
2018-03-06T09:12:21.624Z,30.00
2018-03-06T09:14:00.237Z,33.50
2018-03-06T09:15:38.519Z,29.50
2018-03-06T09:17:15.804Z,34.00
2018-03-06T09:18:53.349Z,31.75
2018-03-06T09:20:31.240Z,32.25
2018-03-06T09:22:09.047Z,30.25
2018-03-06T09:23:46.413Z,33.75
2018-03-06T09:25:23.886Z,26.75
2018-03-06T09:27:02.529Z,34.00
2018-03-06T09:28:39.976Z,33.50
2018-03-06T09:30:18.780Z,33.00
2018-03-06T09:31:56.669Z,30.50
2018-03-06T09:33:34.293Z,31.25
2018-03-06T09:35:12.179Z,31.75
2018-03-06T09:36:49.585Z,33.75
2018-03-06T09:38:26.969Z,33.25
2018-03-06T09:40:04.692Z,32.00
2018-03-06T09:41:41.862Z,28.00
2018-03-06T09:43:19.076Z,32.00
2018-03-06T09:44:56.448Z,24.75
2018-03-06T09:46:35.534Z,26.75
2018-03-06T09:48:12.912Z,29.00
2018-03-06T09:49:50.586Z,30.75
2018-03-06T09:51:28.313Z,33.00
2018-03-06T09:53:06.444Z,31.50
2018-03-06T09:54:44.076Z,24.75
2018-03-06T09:56:21.583Z,26.75
2018-03-06T09:57:59.325Z,24.75
2018-03-06T09:59:37.539Z,30.00
2018-03-06T10:01:16.279Z,32.00
2018-03-06T10:02:53.868Z,28.00
2018-03-06T10:04:31.216Z,33.00
2018-03-06T10:06:08.880Z,29.00
2018-03-06T10:07:46.350Z,32.75
2018-03-06T10:09:24.828Z,33.50
2018-03-06T10:11:04.711Z,32.50
2018-03-06T10:12:46.135Z,33.25
2018-03-06T10:14:23.755Z,31.50
2018-03-06T10:16:01.338Z,32.00
2018-03-06T10:17:39.900Z,32.75
2018-03-06T10:19:18.674Z,30.50
2018-03-06T10:20:56.665Z,28.75
2018-03-06T10:22:35.278Z,30.50
2018-03-06T10:24:13.678Z,30.75
2018-03-06T10:25:51.896Z,29.50
2018-03-06T10:27:29.316Z,30.75
2018-03-06T10:29:06.798Z,33.25
2018-03-06T10:30:44.613Z,31.00
2018-03-06T10:32:22.521Z,30.00
2018-03-06T10:33:59.993Z,32.25
2018-03-06T10:35:37.458Z,31.50
2018-03-06T10:37:15.266Z,31.25
2018-03-06T10:38:55.257Z,28.25
2018-03-06T10:40:32.770Z,32.25
2018-03-06T10:42:10.555Z,31.00
2018-03-06T10:43:47.864Z,32.50
2018-03-06T10:45:29.288Z,22.75
2018-03-06T10:47:06.772Z,26.75
2018-03-06T10:48:44.086Z,28.50
2018-03-06T10:50:22.462Z,24.00
2018-03-06T10:51:59.950Z,31.75
2018-03-06T10:53:38.240Z,28.25
2018-03-06T10:55:16.830Z,28.25
2018-03-06T10:56:55.098Z,27.00
2018-03-06T10:58:33.462Z,27.50
2018-03-06T11:00:11.406Z,27.75
2018-03-06T11:01:49.964Z,28.25
2018-03-06T11:03:27.219Z,32.00
2018-03-06T11:05:05.060Z,30.50
2018-03-06T11:06:42.781Z,33.00
2018-03-06T11:09:48.867Z,29.00
2018-03-06T11:11:26.633Z,26.75
2018-03-06T11:13:05.011Z,30.25
2018-03-06T11:14:45.570Z,29.25
2018-03-06T11:16:23.178Z,30.75
2018-03-06T11:18:00.928Z,30.00
2018-03-06T11:19:38.230Z,29.75
2018-03-06T11:21:15.815Z,27.25
2018-03-06T11:22:54.034Z,30.50
2018-03-06T11:24:32.378Z,31.25
2018-03-06T11:26:09.679Z,28.25
2018-03-06T11:27:46.927Z,30.00
2018-03-06T11:29:24.532Z,27.75
2018-03-06T11:31:02.581Z,28.75
2018-03-06T11:32:40.852Z,31.75
2018-03-06T11:34:18.223Z,31.75
2018-03-06T11:35:55.906Z,30.00
2018-03-06T11:37:35.970Z,29.00
2018-03-06T11:39:13.414Z,27.00
2018-03-06T11:40:50.994Z,29.00
2018-03-06T11:42:28.270Z,29.00
2018-03-06T11:44:06.202Z,31.50
2018-03-06T11:45:43.649Z,28.50
2018-03-06T11:47:21.002Z,31.25
2018-03-06T11:48:58.412Z,30.50
2018-03-06T11:50:36.520Z,29.25
2018-03-06T11:52:14.451Z,28.75
2018-03-06T11:53:51.766Z,26.50
2018-03-06T11:55:29.027Z,30.50
2018-03-06T11:57:07.166Z,28.00
2018-03-06T11:58:44.435Z,26.50
2018-03-06T12:00:22.161Z,27.00
2018-03-06T12:03:31.042Z,25.75
2018-03-06T12:05:08.589Z,26.50
2018-03-06T12:06:45.886Z,24.50
2018-03-06T12:08:23.195Z,22.00
2018-03-06T12:10:00.605Z,25.75
2018-03-06T12:11:37.820Z,26.25
2018-03-06T12:13:15.159Z,22.00
2018-03-06T12:14:53.012Z,21.75
2018-03-06T12:16:37.549Z,23.25
2018-03-06T12:18:38.334Z,22.00
2018-03-06T12:20:21.714Z,25.00
2018-03-06T12:22:00.923Z,22.25
2018-03-06T12:23:38.908Z,25.25
2018-03-06T12:25:18.010Z,23.50
2018-03-06T12:26:56.156Z,23.75
2018-03-06T12:28:36.123Z,21.00
2018-03-06T12:30:15.478Z,22.25
2018-03-06T12:31:54.098Z,24.00
2018-03-06T12:33:33.146Z,21.25
2018-03-06T12:35:11.152Z,22.25
2018-03-06T12:36:50.114Z,23.00
2018-03-06T12:38:28.425Z,25.25
2018-03-06T12:40:07.378Z,21.75
2018-03-06T12:41:45.321Z,23.25
2018-03-06T12:43:23.606Z,24.00
2018-03-06T12:45:01.169Z,24.75
2018-03-06T12:46:39.638Z,22.75
2018-03-06T12:48:17.540Z,25.75
2018-03-06T12:49:55.178Z,26.00
2018-03-06T12:51:32.369Z,23.75
2018-03-06T12:53:10.132Z,23.00
2018-03-06T12:54:48.567Z,23.25
2018-03-06T12:56:29.123Z,24.00
2018-03-06T12:58:06.773Z,25.00
2018-03-06T12:59:44.581Z,26.50
2018-03-06T13:01:22.651Z,26.25
2018-03-06T13:03:00.069Z,24.50
2018-03-06T13:04:38.543Z,26.00
2018-03-06T13:06:16.556Z,18.25
2018-03-06T13:07:55.511Z,24.25
2018-03-06T13:09:32.831Z,24.00
2018-03-06T13:11:09.994Z,22.75
2018-03-06T13:12:47.526Z,21.25
2018-03-06T13:14:24.923Z,19.50
2018-03-06T13:16:02.330Z,21.00
2018-03-06T13:17:40.292Z,19.50
2018-03-06T13:19:17.845Z,19.50
2018-03-06T13:20:55.974Z,18.50
2018-03-06T13:22:33.875Z,19.50
2018-03-06T13:24:11.644Z,20.50
2018-03-06T13:25:49.151Z,22.25
2018-03-06T13:27:27.082Z,20.50
2018-03-06T13:29:05.037Z,21.00
2018-03-06T13:30:43.334Z,20.75
2018-03-06T13:32:21.542Z,21.75
2018-03-06T13:33:58.678Z,22.00
2018-03-06T13:35:36.403Z,20.75
2018-03-06T13:37:13.421Z,19.25
2018-03-06T13:38:50.841Z,21.25
2018-03-06T13:40:28.699Z,21.25
2018-03-06T13:42:05.911Z,20.75
2018-03-06T13:43:42.840Z,19.50
2018-03-06T13:45:21.509Z,19.00
2018-03-06T13:47:02.220Z,18.75
2018-03-06T13:48:40.155Z,19.50
2018-03-06T13:50:17.759Z,18.00
2018-03-06T13:51:56.650Z,18.50
2018-03-06T13:53:33.853Z,18.25
2018-03-06T13:55:10.942Z,21.50
2018-03-06T13:56:48.385Z,18.75
2018-03-06T13:58:26.828Z,22.00
2018-03-06T14:00:04.192Z,16.50
2018-03-06T14:01:42.002Z,18.25
2018-03-06T14:03:20.871Z,19.75
2018-03-06T14:04:59.484Z,20.00
2018-03-06T14:06:37.535Z,19.00
2018-03-06T14:08:16.109Z,19.25
2018-03-06T14:09:53.218Z,17.50
2018-03-06T14:11:31.065Z,18.00
2018-03-06T14:13:08.203Z,18.00
2018-03-06T14:14:50.507Z,17.00
2018-03-06T14:16:28.764Z,21.00
2018-03-06T14:18:06.104Z,19.50
2018-03-06T14:19:43.832Z,16.00
2018-03-06T14:21:20.753Z,15.00
2018-03-06T14:22:58.613Z,17.75
2018-03-06T14:24:35.811Z,19.75
2018-03-06T14:26:12.961Z,19.00
2018-03-06T14:27:50.434Z,18.25
2018-03-06T14:29:29.835Z,21.75
2018-03-06T14:31:07.420Z,20.00
2018-03-06T14:32:45.327Z,21.50
2018-03-06T14:34:22.216Z,23.75
2018-03-06T14:36:00.044Z,22.50
2018-03-06T14:37:38.025Z,19.75
2018-03-06T14:39:15.044Z,20.75
2018-03-06T14:40:53.088Z,18.75
2018-03-06T14:42:31.590Z,19.50
2018-03-06T14:45:44.102Z,21.25
2018-03-06T14:47:21.352Z,21.00
2018-03-06T14:48:58.719Z,22.75
2018-03-06T14:50:35.838Z,21.25
2018-03-06T14:52:14.739Z,23.00
2018-03-06T14:53:57.809Z,23.25
2018-03-06T14:55:36.951Z,22.50
2018-03-06T14:57:15.182Z,19.00
2018-03-06T14:59:01.376Z,19.50
2018-03-06T15:00:38.892Z,18.00
2018-03-06T15:02:18.587Z,19.50
2018-03-06T15:03:57.067Z,20.25
2018-03-06T15:05:34.646Z,22.50
2018-03-06T15:07:11.951Z,19.75
2018-03-06T15:08:50.742Z,20.50
2018-03-06T15:10:27.723Z,22.00
2018-03-06T15:12:04.819Z,18.50
2018-03-06T15:13:41.897Z,21.75
2018-03-06T15:15:21.845Z,19.50
2018-03-06T15:17:03.267Z,19.75
2018-03-06T15:18:40.790Z,19.75
2018-03-06T15:20:18.060Z,22.00
2018-03-06T15:21:58.280Z,22.25
2018-03-06T15:23:35.527Z,22.00
2018-03-06T15:25:12.622Z,21.00
2018-03-06T15:26:49.738Z,24.50
2018-03-06T15:28:29.187Z,22.00
2018-03-06T15:30:06.454Z,22.00
2018-03-06T15:31:51.311Z,22.00
2018-03-06T15:33:31.727Z,21.75
2018-03-06T15:35:08.777Z,20.00
2018-03-06T15:36:45.870Z,22.00
2018-03-06T15:38:23.140Z,25.75
2018-03-06T15:40:00.592Z,23.50
2018-03-06T15:41:38.253Z,22.00
2018-03-06T15:43:16.299Z,23.75
2018-03-06T15:44:53.408Z,23.50
2018-03-06T15:46:30.549Z,20.25
2018-03-06T15:48:09.747Z,18.25
2018-03-06T15:49:48.769Z,23.00
2018-03-06T15:51:47.453Z,24.75
2018-03-06T15:53:25.604Z,23.75
2018-03-06T15:55:03.325Z,24.75
2018-03-06T15:56:41.223Z,22.00
2018-03-06T15:58:18.722Z,25.75
2018-03-06T15:59:59.506Z,26.00
2018-03-06T16:01:39.628Z,26.00
2018-03-06T16:03:27.329Z,23.25
2018-03-06T16:05:05.725Z,24.50
2018-03-06T16:06:44.891Z,24.00
2018-03-06T16:10:01.052Z,22.75
2018-03-06T16:11:42.061Z,26.00
2018-03-06T16:13:20.336Z,25.00
2018-03-06T16:14:57.370Z,22.00
2018-03-06T16:16:34.715Z,24.00
2018-03-06T16:18:12.064Z,24.25
2018-03-06T16:19:49.668Z,24.75
2018-03-06T16:21:27.755Z,25.00
2018-03-06T16:23:05.055Z,24.25
2018-03-06T16:24:42.652Z,24.00
2018-03-06T16:26:21.087Z,26.25
2018-03-06T16:29:37.253Z,24.00
2018-03-06T16:31:19.648Z,26.00
2018-03-06T16:32:58.128Z,23.25
2018-03-06T16:34:35.902Z,25.75
2018-03-06T16:36:13.450Z,24.25
2018-03-06T16:37:50.858Z,25.75
2018-03-06T16:39:32.917Z,23.75
2018-03-06T16:41:11.569Z,25.75
2018-03-06T16:42:49.539Z,25.25
2018-03-06T16:44:27.024Z,26.00
2018-03-06T16:46:28.849Z,27.00
2018-03-06T16:48:05.998Z,27.75
2018-03-06T16:49:43.138Z,25.00
2018-03-06T16:51:21.673Z,25.00
2018-03-06T16:53:00.386Z,26.00
2018-03-06T16:54:38.472Z,27.75
2018-03-06T16:56:17.300Z,25.75
2018-03-06T16:57:56.349Z,23.75
2018-03-06T16:59:34.294Z,25.25
2018-03-06T17:01:22.995Z,23.75
2018-03-06T17:03:09.660Z,25.00
2018-03-06T17:04:48.302Z,19.00
2018-03-06T17:06:26.380Z,25.00
2018-03-06T17:08:14.512Z,26.25
2018-03-06T17:09:53.389Z,26.25
2018-03-06T17:11:33.618Z,26.50
2018-03-06T17:13:11.942Z,24.75
2018-03-06T17:14:55.180Z,26.75
2018-03-06T17:16:37.202Z,29.25
2018-03-06T17:18:16.505Z,26.00
2018-03-06T17:19:56.471Z,26.75
2018-03-06T17:21:35.915Z,26.75
2018-03-06T17:23:13.843Z,28.25
2018-03-06T17:24:52.282Z,28.75
2018-03-06T17:26:30.690Z,29.25
2018-03-06T17:28:09.399Z,27.00
2018-03-06T17:31:27.832Z,25.75
2018-03-06T17:33:07.764Z,25.00
2018-03-06T17:34:50.195Z,26.00
2018-03-06T17:36:29.120Z,26.25
2018-03-06T17:38:08.712Z,25.75
2018-03-06T17:39:46.822Z,27.00
2018-03-06T17:41:25.565Z,24.00
2018-03-06T17:43:05.265Z,25.50
2018-03-06T17:44:44.246Z,25.00
2018-03-06T17:46:23.570Z,25.00
2018-03-06T17:48:03.212Z,23.50
2018-03-06T17:49:42.270Z,20.25
2018-03-06T17:51:20.282Z,22.75
2018-03-06T17:52:58.954Z,23.00
2018-03-06T17:54:36.855Z,23.25
2018-03-06T17:56:15.576Z,25.50
2018-03-06T17:57:53.951Z,22.75
2018-03-06T17:59:32.087Z,22.75
2018-03-06T18:01:11.518Z,22.00
2018-03-06T18:02:49.808Z,23.25
2018-03-06T18:04:28.280Z,22.75
2018-03-06T18:06:07.130Z,24.00
2018-03-06T18:07:44.920Z,22.75
2018-03-06T18:09:24.104Z,22.50
2018-03-06T18:11:19.780Z,22.75
2018-03-06T18:13:02.600Z,23.25
2018-03-06T18:14:43.409Z,21.50
2018-03-06T18:16:22.108Z,20.00
2018-03-06T18:18:04.133Z,23.75
2018-03-06T18:19:44.215Z,22.00
2018-03-06T18:21:25.926Z,18.00
2018-03-06T18:23:05.908Z,20.00
2018-03-06T18:24:46.178Z,19.25
2018-03-06T18:26:23.980Z,21.00
2018-03-06T18:28:02.685Z,19.50
2018-03-06T18:29:45.493Z,19.25
2018-03-06T18:31:23.718Z,18.25
2018-03-06T18:33:02.479Z,21.00
2018-03-06T18:34:41.168Z,20.00
2018-03-06T18:36:28.951Z,16.50
2018-03-06T18:38:08.429Z,18.75
2018-03-06T18:39:48.098Z,18.25
2018-03-06T18:41:28.067Z,20.50
2018-03-06T18:43:07.288Z,18.50
2018-03-06T18:44:44.700Z,22.75
2018-03-06T18:46:23.646Z,21.50
2018-03-06T18:48:01.536Z,18.25
2018-03-06T18:49:43.856Z,21.50
2018-03-06T18:51:21.209Z,17.75
2018-03-06T18:53:00.497Z,17.25
2018-03-06T18:54:37.640Z,18.00
2018-03-06T18:56:14.745Z,20.00
2018-03-06T18:57:53.331Z,20.75
2018-03-06T18:59:30.390Z,18.00
2018-03-06T19:03:26.818Z,17.50
2018-03-06T19:07:22.242Z,18.75
2018-03-06T19:08:59.746Z,19.75
2018-03-06T19:10:38.972Z,20.50
2018-03-06T19:12:18.088Z,16.50
2018-03-06T19:13:55.267Z,20.00
2018-03-06T19:15:35.413Z,21.25
2018-03-06T19:17:13.140Z,20.50
2018-03-06T19:20:46.665Z,20.00
2018-03-06T19:22:23.871Z,19.00
2018-03-06T19:24:02.244Z,21.75
2018-03-06T19:25:39.316Z,18.00
2018-03-06T19:27:16.403Z,22.00
2018-03-06T19:28:53.441Z,21.25
2018-03-06T19:30:31.540Z,22.25
2018-03-06T19:32:08.658Z,17.25
2018-03-06T19:33:45.770Z,18.25
2018-03-06T19:35:23.774Z,20.25
2018-03-06T19:37:01.191Z,20.25
2018-03-06T19:38:41.469Z,19.25
2018-03-06T19:40:18.958Z,22.25
2018-03-06T19:41:56.261Z,21.25
2018-03-06T19:43:33.373Z,21.75
2018-03-06T19:45:10.489Z,22.00
2018-03-06T19:46:47.645Z,19.25
2018-03-06T19:48:26.118Z,20.50
2018-03-06T19:50:03.697Z,21.00
2018-03-06T19:51:41.021Z,18.50
2018-03-06T19:53:18.148Z,19.75
2018-03-06T19:54:58.397Z,19.50
2018-03-06T19:56:36.439Z,20.25
2018-03-06T19:58:13.722Z,20.75
2018-03-06T19:59:52.071Z,21.00
2018-03-06T20:01:29.739Z,23.75
2018-03-06T20:03:06.701Z,20.25
2018-03-06T20:04:43.906Z,20.50
2018-03-06T20:06:21.495Z,23.75
2018-03-06T20:07:59.231Z,21.75
2018-03-06T20:09:36.634Z,22.25
2018-03-06T20:11:14.984Z,23.00
2018-03-06T20:12:55.005Z,19.75
2018-03-06T20:14:37.504Z,21.75
2018-03-06T20:16:15.655Z,23.25
2018-03-06T20:17:52.710Z,23.25
2018-03-06T20:19:33.724Z,21.75
2018-03-06T20:21:11.221Z,23.00
2018-03-06T20:22:48.843Z,21.00
2018-03-06T20:24:30.558Z,23.00
2018-03-06T20:26:08.181Z,22.00
2018-03-06T20:27:46.093Z,22.75
2018-03-06T20:29:23.235Z,21.50
2018-03-06T20:31:04.499Z,23.00
2018-03-06T20:33:17.084Z,22.75
2018-03-06T20:34:54.925Z,20.75
2018-03-06T20:36:31.975Z,23.00
2018-03-06T20:38:11.028Z,22.75
2018-03-06T20:40:54.063Z,22.75
2018-03-06T20:42:31.300Z,24.25
2018-03-06T20:44:09.031Z,23.25
2018-03-06T20:45:51.315Z,25.00
2018-03-06T20:47:29.266Z,24.25
2018-03-06T20:49:06.247Z,23.50
2018-03-06T20:50:44.461Z,26.00
2018-03-06T20:52:21.622Z,25.50
2018-03-06T20:55:11.395Z,24.25
2018-03-06T20:56:48.847Z,26.50
2018-03-06T20:58:26.727Z,25.00
2018-03-06T21:00:04.730Z,24.25
2018-03-06T21:01:42.285Z,27.00
2018-03-06T21:03:19.861Z,26.00
2018-03-06T21:04:56.978Z,26.00
2018-03-06T21:06:35.579Z,26.50
2018-03-06T21:09:43.151Z,25.25
2018-03-06T21:11:20.595Z,26.00
2018-03-06T21:12:57.675Z,26.75
2018-03-06T21:14:34.762Z,27.00
2018-03-06T21:16:12.686Z,25.50
2018-03-06T21:17:49.988Z,26.00
2018-03-06T21:19:27.228Z,26.00
2018-03-06T21:21:07.347Z,26.50
2018-03-06T21:22:51.003Z,27.50
2018-03-06T21:24:30.887Z,25.75
2018-03-06T21:26:14.560Z,25.00
2018-03-06T21:27:53.134Z,26.25
2018-03-06T21:29:33.437Z,27.75
2018-03-06T21:31:11.261Z,27.00